»·PEaware :: ASA821 KSJC-KSEA

ASA821 :: KSJC-KSEA

FLIGHT INFORMATION

Flight Status: Arrived
Operator:
Alaska Airlines
More flights by this operator :: More flights under this callsign
Pilot: Andre N. (13929)
Aircraft: BOEING 737-800
(B738)
More flights by this aircraft type
Origin: KSJC Mineta San Jose Intl
United States
Destination: KSEA Seattle-Tacoma Intl
United States
More flights between these airports :: More routes between these airports
Route: LOUPE4 BMRNG HRNER RBL LMT BTG HAWKZ6
File this flight plan on PilotEdge
Remarks:
Altitude:
(Current/Filed)
34,000ft
Speed:
(Current/Filed)
450kts
Departed: 17-Apr-18 07:49 PM
Arrived: 17-Apr-18 09:42 PM
Distance/Time
Traveled:
605nm/1:53
Distance/Time
To Go:
Arrived

Flight Plot

Page will automatically refresh every two minutes.

Flight plan parsing failed; only flown route is shown


Map Options




Map Legend


Flown Route
Filed Route
Departure Airport
Arrival Airport
Navaid (VOR, NDB)
Fix

Horizontal Profiles

Position Reports

Time Latitude Longitude Heading Altitude Ground
Speed
17-Apr-18 19:26 37.363682 -121.923985 47 70ft 0kts
17-Apr-18 19:27 37.363682 -121.923985 47 70ft 0kts
17-Apr-18 19:28 37.363682 -121.923985 47 70ft 0kts
17-Apr-18 19:29 37.363682 -121.923985 47 70ft 0kts
17-Apr-18 19:30 37.363682 -121.923985 47 70ft 0kts
17-Apr-18 19:31 37.363682 -121.923985 47 70ft 0kts
17-Apr-18 19:32 37.363682 -121.923985 47 70ft 0kts
17-Apr-18 19:33 37.363682 -121.923985 47 70ft 0kts
17-Apr-18 19:34 37.363682 -121.923985 47 70ft 0kts
17-Apr-18 19:35 37.363682 -121.923985 47 70ft 0kts
17-Apr-18 19:36 37.363682 -121.923985 47 70ft 0kts
17-Apr-18 19:37 37.363592 -121.924110 47 70ft 2kts
17-Apr-18 19:38 37.363412 -121.924783 109 70ft 2kts
17-Apr-18 19:39 37.363607 -121.925181 0 70ft 0kts
17-Apr-18 19:40 37.363625 -121.925139 84 70ft 0kts
17-Apr-18 19:41 37.363625 -121.925139 84 70ft 0kts
17-Apr-18 19:42 37.362556 -121.923956 140 70ft 15kts
17-Apr-18 19:43 37.359432 -121.920533 138 69ft 15kts
17-Apr-18 19:44 37.356072 -121.916842 138 69ft 10kts
17-Apr-18 19:45 37.354285 -121.914971 161 70ft 10kts
17-Apr-18 19:46 37.353775 -121.915190 224 70ft 0kts
17-Apr-18 19:47 37.353481 -121.915593 228 70ft 8kts
17-Apr-18 19:48 37.367317 -121.931781 318 367ft 161kts
17-Apr-18 19:49 37.407942 -121.956115 3 3067ft 183kts
17-Apr-18 19:50 37.461350 -121.955450 354 4935ft 227kts
17-Apr-18 19:51 37.523384 -121.959153 2 4985ft 231kts
17-Apr-18 19:52 37.557254 -121.898603 102 5631ft 263kts
17-Apr-18 19:53 37.516522 -121.828159 132 8827ft 267kts
17-Apr-18 19:54 37.467619 -121.759341 134 11746ft 276kts
17-Apr-18 19:55 37.397786 -121.742606 192 13659ft 301kts
17-Apr-18 19:56 37.330008 -121.792714 245 16113ft 309kts
17-Apr-18 19:57 37.325126 -121.896865 271 18850ft 313kts
17-Apr-18 19:58 37.374942 -121.979587 334 20348ft 350kts
17-Apr-18 19:59 37.466600 -121.992735 348 22233ft 372kts
17-Apr-18 20:00 37.565778 -121.982563 6 23938ft 400kts
17-Apr-18 20:01 37.664408 -121.968223 347 25435ft 393kts
17-Apr-18 20:02 37.764349 -121.979524 346 26917ft 400kts
17-Apr-18 20:03 37.867690 -121.990897 346 28533ft 401kts
17-Apr-18 20:04 37.971457 -122.002306 347 29255ft 422kts
17-Apr-18 20:05 38.085116 -122.014578 347 30633ft 425kts
17-Apr-18 20:06 38.138212 -122.020291 346 31259ft 425kts
17-Apr-18 20:07 38.234176 -122.030614 346 32300ft 425kts
17-Apr-18 20:08 38.344805 -122.042541 346 33376ft 425kts
17-Apr-18 20:09 38.455708 -122.054535 346 34220ft 429kts
17-Apr-18 20:10 38.570006 -122.067122 347 34222ft 455kts
17-Apr-18 20:11 38.689752 -122.080245 347 34212ft 468kts
17-Apr-18 20:12 38.811254 -122.093460 347 34212ft 469kts
17-Apr-18 20:13 38.933587 -122.106821 347 34213ft 469kts
17-Apr-18 20:14 39.059915 -122.120629 347 34213ft 469kts
17-Apr-18 20:15 39.137006 -122.129098 347 34204ft 469kts
17-Apr-18 20:16 39.248271 -122.141342 347 34208ft 469kts
17-Apr-18 20:17 39.371618 -122.155010 347 34209ft 472kts
17-Apr-18 20:18 39.495884 -122.168799 347 34208ft 473kts
17-Apr-18 20:19 39.623102 -122.182959 347 34208ft 473kts
17-Apr-18 20:20 39.750736 -122.197211 347 34209ft 473kts
17-Apr-18 20:21 39.876238 -122.211280 347 34210ft 472kts
17-Apr-18 20:22 39.991451 -122.224235 347 34209ft 472kts
17-Apr-18 20:23 40.100174 -122.235637 353 34191ft 476kts
17-Apr-18 20:24 40.179602 -122.219912 5 34200ft 487kts
17-Apr-18 20:25 40.305324 -122.187901 4 34207ft 496kts
17-Apr-18 20:26 40.430857 -122.156462 4 34207ft 496kts
17-Apr-18 20:27 40.557581 -122.124903 4 34209ft 496kts
17-Apr-18 20:28 40.679204 -122.094663 4 34211ft 496kts
17-Apr-18 20:29 40.804824 -122.063479 4 34210ft 496kts
17-Apr-18 20:30 40.928331 -122.032788 4 34187ft 496kts
17-Apr-18 20:31 41.044686 -122.003883 3 34188ft 496kts
17-Apr-18 20:32 41.138545 -121.980561 3 34178ft 496kts
17-Apr-18 20:33 41.263161 -121.949596 3 34181ft 496kts
17-Apr-18 20:34 41.393850 -121.917117 3 34183ft 496kts
17-Apr-18 20:35 41.527100 -121.883998 3 34185ft 496kts
17-Apr-18 20:36 41.658210 -121.851404 3 34186ft 496kts
17-Apr-18 20:37 41.791743 -121.818199 3 34188ft 497kts
17-Apr-18 20:38 41.919755 -121.786360 3 34190ft 496kts
17-Apr-18 20:39 42.042399 -121.755844 3 34191ft 496kts
17-Apr-18 20:40 42.135720 -121.732713 1 34180ft 495kts
17-Apr-18 20:41 42.260097 -121.749271 341 34185ft 473kts
17-Apr-18 20:42 42.384704 -121.779793 341 34184ft 473kts
17-Apr-18 20:43 42.509681 -121.810009 341 34185ft 473kts
17-Apr-18 20:44 42.635637 -121.840366 341 34187ft 473kts
17-Apr-18 20:45 42.760110 -121.870348 341 34187ft 473kts
17-Apr-18 20:46 42.884524 -121.900310 341 34188ft 473kts
17-Apr-18 20:47 43.006123 -121.929596 341 34189ft 473kts
17-Apr-18 20:48 43.111819 -121.955053 341 34239ft 473kts
17-Apr-18 20:49 43.204508 -121.977381 341 34234ft 473kts
17-Apr-18 20:50 43.326593 -122.006784 341 34249ft 473kts
17-Apr-18 20:51 43.449388 -122.036360 341 34233ft 473kts
17-Apr-18 20:52 43.572446 -122.066021 341 34236ft 473kts
17-Apr-18 20:53 43.695983 -122.095792 341 34238ft 473kts
17-Apr-18 20:54 43.821885 -122.126133 341 34238ft 473kts
17-Apr-18 20:55 43.945333 -122.155881 341 34240ft 473kts
17-Apr-18 20:56 44.070565 -122.186060 341 34241ft 473kts
17-Apr-18 20:57 44.148585 -122.204873 341 34231ft 473kts
17-Apr-18 20:58 44.246056 -122.228369 341 34282ft 473kts
17-Apr-18 20:59 44.367874 -122.257737 342 34287ft 473kts
17-Apr-18 21:00 44.494161 -122.288188 342 34287ft 473kts
17-Apr-18 21:01 44.610959 -122.316340 342 34290ft 473kts
17-Apr-18 21:02 44.736785 -122.346690 342 34290ft 473kts
17-Apr-18 21:03 44.861239 -122.376702 342 34319ft 473kts
17-Apr-18 21:04 44.985065 -122.406581 342 34319ft 473kts
17-Apr-18 21:05 45.100713 -122.434477 342 34319ft 473kts
17-Apr-18 21:06 45.162753 -122.449451 342 34311ft 473kts
17-Apr-18 21:07 45.281621 -122.478143 342 34311ft 473kts
17-Apr-18 21:08 45.391285 -122.504618 342 34311ft 474kts
17-Apr-18 21:09 45.503616 -122.531744 342 34312ft 474kts
17-Apr-18 21:10 45.620659 -122.560017 342 34313ft 474kts
17-Apr-18 21:11 45.720817 -122.584355 345 34316ft 471kts
17-Apr-18 21:12 45.843821 -122.614555 345 33124ft 466kts
17-Apr-18 21:13 45.961848 -122.643933 345 30674ft 467kts
17-Apr-18 21:14 46.066395 -122.670078 346 28559ft 465kts
17-Apr-18 21:15 46.152438 -122.689069 347 26813ft 459kts
17-Apr-18 21:16 46.241651 -122.706676 348 24931ft 440kts
17-Apr-18 21:17 46.355896 -122.725254 355 22682ft 416kts
17-Apr-18 21:18 46.460950 -122.728726 355 20889ft 397kts
17-Apr-18 21:19 46.562259 -122.732019 355 19180ft 374kts
17-Apr-18 21:20 46.660718 -122.735334 355 17505ft 353kts
17-Apr-18 21:21 46.751697 -122.738486 355 15946ft 343kts
17-Apr-18 21:22 46.832518 -122.687493 38 14492ft 340kts
17-Apr-18 21:23 46.901890 -122.605775 36 13313ft 317kts
17-Apr-18 21:24 46.968804 -122.548472 14 12348ft 305kts
17-Apr-18 21:25 47.045027 -122.514934 14 11514ft 301kts
17-Apr-18 21:26 47.109093 -122.492322 4 10813ft 296kts
17-Apr-18 21:27 47.170281 -122.481601 3 10509ft 294kts
17-Apr-18 21:28 47.243009 -122.470197 2 9834ft 270kts
17-Apr-18 21:29 47.312816 -122.459890 3 8797ft 266kts
17-Apr-18 21:30 47.376641 -122.452959 358 7827ft 253kts
17-Apr-18 21:31 47.430743 -122.452964 359 6954ft 242kts
17-Apr-18 21:32 47.489262 -122.453328 359 5903ft 234kts
17-Apr-18 21:33 47.546533 -122.453845 358 4974ft 234kts
17-Apr-18 21:34 47.602409 -122.453890 7 4971ft 205kts
17-Apr-18 21:35 47.629427 -122.396952 92 4205ft 203kts
17-Apr-18 21:36 47.601872 -122.345958 145 3770ft 199kts
17-Apr-18 21:37 47.565041 -122.307450 165 2485ft 198kts
17-Apr-18 21:38 47.517254 -122.310799 182 1527ft 164kts
17-Apr-18 21:39 47.476841 -122.310652 183 756ft 145kts
17-Apr-18 21:40 47.444053 -122.311179 182 441ft 46kts
17-Apr-18 21:41 47.439479 -122.309176 147 441ft 3kts
17-Apr-18 21:42 47.439372 -122.306505 18 441ft 11kts
17-Apr-18 21:43 47.443822 -122.306322 0 441ft 20kts
17-Apr-18 21:44 47.448141 -122.305865 67 441ft 12kts
17-Apr-18 21:45 47.447010 -122.300777 64 441ft 16kts
17-Apr-18 21:46 47.449249 -122.301284 233 441ft 3kts

Navigation Log

Ident Type
Flight plan parsing failed, navigation log unavailable